Time;durP1;ratioP1;P1;durP2;ratioP2;P2;SDS_P1;SDS_P2;PMS_P1;PMS_P2;Temp;Humidity;BMP_temperature;BMP_pressure;BME280_temperature;BME280_humidity;BME280_pressure;Samples;Min_cycle;Max_cycle;Signal;HPM_P1;HPM_P2
2022/11/28 00:00:33;;;;;;;9.75;7.05;;;;;;;;;;5134261;28;20051;-87
2022/11/28 00:03:00;;;;;;;7.30;6.40;;;;;;;;;;5115958;28;20419;-87
2022/11/28 00:05:27;;;;;;;8.18;6.70;;;;;;;;;;5134484;28;20054;-87
2022/11/28 00:07:55;;;;;;;8.57;6.88;;;;;;;;;;5116395;28;20069;-87
2022/11/28 00:10:22;;;;;;;7.45;6.25;;;;;;;;;;5116441;28;20055;-88
2022/11/28 00:12:49;;;;;;;9.55;6.50;;;;;;;;;;5116355;28;20059;-87
2022/11/28 00:15:16;;;;;;;6.75;6.07;;;;;;;;;;5134011;28;20054;-88
2022/11/28 00:17:44;;;;;;;8.27;6.05;;;;;;;;;;5134294;28;20055;-87
2022/11/28 00:20:11;;;;;;;7.45;6.60;;;;;;;;;;5116406;28;20086;-88
2022/11/28 00:22:38;;;;;;;6.95;6.22;;;;;;;;;;5134198;28;20594;-87
2022/11/28 00:25:06;;;;;;;8.23;6.07;;;;;;;;;;5134454;28;20051;-88
2022/11/28 00:27:34;;;;;;;6.95;6.32;;;;;;;;;;5116404;28;20061;-87
2022/11/28 00:30:01;;;;;;;6.90;5.85;;;;;;;;;;5123014;27;20047;-87
2022/11/28 00:32:28;;;;;;;6.32;5.68;;;;;;;;;;5138856;27;20043;-86
2022/11/28 00:34:56;;;;;;;7.70;6.50;;;;;;;;;;5120068;27;20047;-87
2022/11/28 00:37:23;;;;;;;7.65;6.57;;;;;;;;;;5120165;27;20047;-86
2022/11/28 00:39:50;;;;;;;7.35;6.63;;;;;;;;;;5138110;27;20078;-86
2022/11/28 00:42:20;;;;;;;8.75;6.18;;;;;;;;;;5119767;27;20051;-87
2022/11/28 00:44:51;;;;;;;8.18;6.35;;;;;;;;;;5119786;27;20049;-88
2022/11/28 00:47:18;;;;;;;7.72;6.18;;;;;;;;;;5137547;27;20054;-86
2022/11/28 00:49:45;;;;;;;8.43;6.88;;;;;;;;;;5119713;27;20062;-86
2022/11/28 00:52:12;;;;;;;7.47;6.25;;;;;;;;;;5119595;27;20562;-87
2022/11/28 00:54:40;;;;;;;7.68;6.50;;;;;;;;;;5137323;27;20054;-86
2022/11/28 00:57:07;;;;;;;7.88;6.57;;;;;;;;;;5137751;27;20051;-87
2022/11/28 00:59:34;;;;;;;7.75;6.45;;;;;;;;;;5138968;27;20050;-87
2022/11/28 01:02:02;;;;;;;7.85;6.07;;;;;;;;;;5136937;27;20043;-87
2022/11/28 01:04:29;;;;;;;7.70;6.53;;;;;;;;;;5121209;27;20048;-89
2022/11/28 01:06:59;;;;;;;7.97;6.50;;;;;;;;;;5119644;27;20043;-88
2022/11/28 01:09:26;;;;;;;8.38;6.38;;;;;;;;;;5119175;27;20490;-87
2022/11/28 01:11:54;;;;;;;8.57;6.00;;;;;;;;;;5119286;27;20054;-87
2022/11/28 01:14:22;;;;;;;8.95;6.43;;;;;;;;;;5119256;27;20051;-87
2022/11/28 01:16:49;;;;;;;9.57;6.90;;;;;;;;;;5137040;27;20054;-87
2022/11/28 01:19:17;;;;;;;11.88;6.53;;;;;;;;;;5137001;27;20101;-87
2022/11/28 01:21:45;;;;;;;8.73;6.78;;;;;;;;;;5137080;27;20054;-87
2022/11/28 01:24:13;;;;;;;8.15;7.10;;;;;;;;;;5118695;27;20058;-87
2022/11/28 01:26:41;;;;;;;11.02;6.70;;;;;;;;;;5118938;27;20053;-87
2022/11/28 01:29:08;;;;;;;9.10;7.00;;;;;;;;;;5118265;27;20051;-87
2022/11/28 01:31:36;;;;;;;11.65;6.35;;;;;;;;;;5118865;27;20047;-87
2022/11/28 01:34:03;;;;;;;8.40;6.57;;;;;;;;;;5118689;27;20482;-87
2022/11/28 01:36:31;;;;;;;7.15;5.97;;;;;;;;;;5118749;27;20126;-87
2022/11/28 01:38:58;;;;;;;6.80;6.13;;;;;;;;;;5118308;27;20409;-87
2022/11/28 01:41:26;;;;;;;7.38;6.20;;;;;;;;;;5136727;27;20047;-87
2022/11/28 01:44:06;;;;;;;10.10;6.82;;;;;;;;;;5136651;27;20047;-87
2022/11/28 01:46:34;;;;;;;7.22;5.90;;;;;;;;;;5117997;27;20062;-88
2022/11/28 01:49:22;;;;;;;7.60;6.18;;;;;;;;;;5118316;27;20111;-87
2022/11/28 01:51:52;;;;;;;6.38;5.78;;;;;;;;;;5118571;27;20047;-87
2022/11/28 01:54:21;;;;;;;6.68;5.50;;;;;;;;;;5118406;27;20057;-87
2022/11/28 01:56:50;;;;;;;10.25;6.07;;;;;;;;;;5118441;27;20482;-86
2022/11/28 01:59:18;;;;;;;8.60;5.32;;;;;;;;;;5118133;27;20483;-87
2022/11/28 02:01:45;;;;;;;6.70;5.75;;;;;;;;;;5118424;27;20058;-87
2022/11/28 02:04:13;;;;;;;5.45;4.93;;;;;;;;;;5136051;27;20047;-88
2022/11/28 02:06:41;;;;;;;7.68;6.30;;;;;;;;;;5136190;27;20048;-87
2022/11/28 02:09:13;;;;;;;14.07;6.45;;;;;;;;;;5118024;27;20058;-87
2022/11/28 02:11:55;;;;;;;7.35;5.53;;;;;;;;;;5136044;27;20054;-87
2022/11/28 02:14:22;;;;;;;8.00;5.97;;;;;;;;;;5147626;27;20049;-88
2022/11/28 02:17:08;;;;;;;9.65;6.18;;;;;;;;;;5125827;27;20043;-87
2022/11/28 02:19:35;;;;;;;6.22;5.63;;;;;;;;;;5117873;27;20515;-87
2022/11/28 02:22:17;;;;;;;7.05;5.20;;;;;;;;;;5117599;27;20087;-87
2022/11/28 02:24:55;;;;;;;6.25;4.90;;;;;;;;;;5135739;27;20051;-87
2022/11/28 02:27:29;;;;;;;8.82;5.35;;;;;;;;;;5117748;27;20451;-87
2022/11/28 02:30:02;;;;;;;10.35;5.75;;;;;;;;;;5135819;27;20047;-87
2022/11/28 02:32:40;;;;;;;6.38;5.43;;;;;;;;;;5117835;27;20135;-87
2022/11/28 02:35:19;;;;;;;6.32;5.43;;;;;;;;;;5117550;27;20047;-87
2022/11/28 02:37:57;;;;;;;6.53;5.03;;;;;;;;;;5117631;27;20047;-87
2022/11/28 02:40:28;;;;;;;5.05;4.50;;;;;;;;;;5117443;27;20047;-87
2022/11/28 02:43:08;;;;;;;6.38;5.10;;;;;;;;;;5116959;27;20043;-88
2022/11/28 02:45:35;;;;;;;6.07;4.75;;;;;;;;;;5113542;28;20055;-88
2022/11/28 02:48:04;;;;;;;7.30;4.68;;;;;;;;;;5113629;28;20062;-87
2022/11/28 02:50:44;;;;;;;6.45;5.10;;;;;;;;;;5114325;28;20040;-87
2022/11/28 02:53:13;;;;;;;5.57;4.75;;;;;;;;;;5114690;28;20047;-87
2022/11/28 02:55:41;;;;;;;5.20;4.70;;;;;;;;;;5113430;28;20055;-87
2022/11/28 02:58:09;;;;;;;7.30;5.07;;;;;;;;;;5113091;28;20055;-87
2022/11/28 03:00:38;;;;;;;5.55;4.75;;;;;;;;;;5113626;28;20054;-87
2022/11/28 03:03:24;;;;;;;6.32;4.38;;;;;;;;;;5113124;28;20058;-87
2022/11/28 03:05:57;;;;;;;5.32;4.78;;;;;;;;;;5114416;28;20048;-86
2022/11/28 03:08:27;;;;;;;6.22;4.82;;;;;;;;;;5113412;28;20415;-87
2022/11/28 03:11:01;;;;;;;5.47;4.13;;;;;;;;;;5113198;28;20066;-88
2022/11/28 03:13:47;;;;;;;5.60;4.28;;;;;;;;;;5114516;28;20055;-87
2022/11/28 03:16:20;;;;;;;5.03;4.40;;;;;;;;;;5113124;28;20229;-88
2022/11/28 03:18:48;;;;;;;6.22;4.38;;;;;;;;;;5114088;28;20069;-87
2022/11/28 03:21:34;;;;;;;5.45;4.80;;;;;;;;;;5114396;28;20138;-87
2022/11/28 03:24:06;;;;;;;4.88;4.43;;;;;;;;;;5113512;28;20479;-86
2022/11/28 03:26:38;;;;;;;5.10;4.07;;;;;;;;;;5115366;28;20052;-86
2022/11/28 03:29:14;;;;;;;6.28;4.47;;;;;;;;;;5127390;28;20043;-87
2022/11/28 03:31:44;;;;;;;5.00;4.18;;;;;;;;;;5114399;28;20051;-87
2022/11/28 03:34:15;;;;;;;6.70;4.20;;;;;;;;;;5114904;28;20054;-87
2022/11/28 03:36:49;;;;;;;4.47;4.18;;;;;;;;;;5117123;28;20050;-87
2022/11/28 03:39:21;;;;;;;5.15;3.88;;;;;;;;;;5113699;28;20052;-87
2022/11/28 03:42:07;;;;;;;5.53;4.05;;;;;;;;;;5113029;28;20047;-86
2022/11/28 03:44:40;;;;;;;4.47;3.95;;;;;;;;;;5113056;28;20062;-88
2022/11/28 03:47:08;;;;;;;;;;;;;;;;;;5113324;28;20495;-87
2022/11/28 03:49:38;;;;;;;4.05;3.38;;;;;;;;;;5112700;28;19924;-87
2022/11/28 03:52:09;;;;;;;5.07;3.88;;;;;;;;;;5112783;28;20050;-87
2022/11/28 03:54:39;;;;;;;5.57;3.88;;;;;;;;;;5113093;28;20130;-88
2022/11/28 03:57:14;;;;;;;6.82;4.43;;;;;;;;;;5112864;28;20574;-87
2022/11/28 03:59:42;;;;;;;4.32;3.92;;;;;;;;;;5112640;28;20044;-87
2022/11/28 04:02:22;;;;;;;5.63;4.35;;;;;;;;;;5114374;28;20052;-87
2022/11/28 04:05:01;;;;;;;6.43;3.72;;;;;;;;;;5116790;28;20130;-87
2022/11/28 04:07:36;;;;;;;4.53;4.13;;;;;;;;;;5117047;28;20044;-86
2022/11/28 04:10:09;;;;;;;4.13;3.83;;;;;;;;;;5117839;28;20197;-88
2022/11/28 04:12:48;;;;;;;4.78;4.18;;;;;;;;;;5117934;28;20218;-87
2022/11/28 04:15:18;;;;;;;5.45;3.80;;;;;;;;;;5117833;28;20571;-88
2022/11/28 04:18:04;;;;;;;5.20;3.65;;;;;;;;;;5118074;28;20046;-87
2022/11/28 04:20:34;;;;;;;4.32;3.42;;;;;;;;;;5116889;28;20051;-87
2022/11/28 04:23:05;;;;;;;4.07;3.20;;;;;;;;;;5116388;28;20052;-87
2022/11/28 04:25:35;;;;;;;5.05;3.30;;;;;;;;;;5116464;28;20471;-87
2022/11/28 04:28:06;;;;;;;4.30;3.80;;;;;;;;;;5117800;28;20422;-87
2022/11/28 04:30:33;;;;;;;6.03;2.70;;;;;;;;;;5117776;28;20044;-88
2022/11/28 04:33:03;;;;;;;16.48;3.65;;;;;;;;;;5116444;28;20047;-88
2022/11/28 04:35:33;;;;;;;7.57;3.80;;;;;;;;;;5116151;28;20117;-87
2022/11/28 04:38:02;;;;;;;3.45;3.10;;;;;;;;;;5116297;28;20477;-87
2022/11/28 04:40:31;;;;;;;3.50;3.15;;;;;;;;;;5117164;28;20510;-87
2022/11/28 04:43:01;;;;;;;5.05;3.50;;;;;;;;;;5135564;28;20502;-85
2022/11/28 04:45:34;;;;;;;3.95;3.55;;;;;;;;;;5117654;28;20064;-87
2022/11/28 04:48:02;;;;;;;5.40;3.50;;;;;;;;;;5116001;28;20051;-87
2022/11/28 04:50:50;;;;;;;3.67;3.38;;;;;;;;;;5116116;28;20130;-87
2022/11/28 04:53:25;;;;;;;16.58;3.40;;;;;;;;;;5117048;28;20043;-87
2022/11/28 04:56:00;;;;;;;4.32;3.78;;;;;;;;;;5115899;28;20070;-87
2022/11/28 04:58:39;;;;;;;3.58;3.25;;;;;;;;;;5115839;28;20096;-87
2022/11/28 05:01:10;;;;;;;5.32;3.60;;;;;;;;;;5115950;28;20051;-87
2022/11/28 05:03:38;;;;;;;3.92;3.58;;;;;;;;;;5116261;28;20475;-87
2022/11/28 05:06:09;;;;;;;4.47;3.78;;;;;;;;;;5116893;28;20059;-88
2022/11/28 05:08:36;;;;;;;3.53;3.10;;;;;;;;;;5115893;28;20410;-87
2022/11/28 05:11:03;;;;;;;4.88;3.58;;;;;;;;;;5115607;28;20471;-87
2022/11/28 05:13:31;;;;;;;3.92;3.53;;;;;;;;;;5115049;28;20058;-88
2022/11/28 05:16:00;;;;;;;9.70;3.70;;;;;;;;;;5116419;28;20050;-88
2022/11/28 05:18:27;;;;;;;5.85;3.30;;;;;;;;;;5115633;28;20083;-87
2022/11/28 05:20:54;;;;;;;7.22;5.45;;;;;;;;;;5116490;28;20399;-87
2022/11/28 05:23:22;;;;;;;6.25;5.03;;;;;;;;;;5115532;28;20048;-87
2022/11/28 05:25:49;;;;;;;8.77;4.20;;;;;;;;;;5115162;28;20052;-87
2022/11/28 05:28:16;;;;;;;5.18;4.05;;;;;;;;;;5116479;28;20415;-87
2022/11/28 05:30:43;;;;;;;3.80;3.50;;;;;;;;;;5115058;28;20078;-88
2022/11/28 05:33:10;;;;;;;6.45;3.47;;;;;;;;;;5115147;28;20514;-88
2022/11/28 05:35:40;;;;;;;4.00;3.60;;;;;;;;;;5116347;28;20415;-88
2022/11/28 05:38:08;;;;;;;3.85;3.47;;;;;;;;;;5115124;28;20071;-87
2022/11/28 05:40:43;;;;;;;3.97;3.60;;;;;;;;;;5115282;28;20039;-88
2022/11/28 05:43:10;;;;;;;4.57;3.58;;;;;;;;;;5116259;27;20047;-87
2022/11/28 05:45:41;;;;;;;4.75;3.45;;;;;;;;;;5114844;28;20060;-87
2022/11/28 05:48:09;;;;;;;4.15;3.75;;;;;;;;;;5115825;28;20499;-87
2022/11/28 05:50:38;;;;;;;4.38;3.40;;;;;;;;;;5115636;28;20051;-87
2022/11/28 05:53:06;;;;;;;4.97;3.50;;;;;;;;;;5115214;28;20095;-87
2022/11/28 05:55:37;;;;;;;4.63;3.80;;;;;;;;;;5128473;28;20101;-87
2022/11/28 05:58:04;;;;;;;7.82;3.75;;;;;;;;;;5122552;28;20472;-87
2022/11/28 06:00:31;;;;;;;4.85;3.00;;;;;;;;;;5114976;28;20135;-87
2022/11/28 06:02:58;;;;;;;3.95;2.92;;;;;;;;;;5114453;28;20050;-87
2022/11/28 06:05:27;;;;;;;5.03;3.03;;;;;;;;;;5114796;28;20077;-87
2022/11/28 06:08:10;;;;;;;3.85;2.92;;;;;;;;;;5115073;28;20453;-87
2022/11/28 06:10:37;;;;;;;3.83;2.80;;;;;;;;;;5115836;28;20054;-87
2022/11/28 06:13:05;;;;;;;3.55;3.20;;;;;;;;;;5109067;28;20040;-87
2022/11/28 06:15:32;;;;;;;4.68;3.03;;;;;;;;;;5076898;28;20044;-87
2022/11/28 06:18:04;;;;;;;3.70;2.90;;;;;;;;;;5078049;28;20047;-87
2022/11/28 06:20:33;;;;;;;17.40;4.10;;;;;;;;;;5077682;28;20047;-87
2022/11/28 06:23:01;;;;;;;9.75;4.15;;;;;;;;;;5077402;28;20048;-87
2022/11/28 06:25:28;;;;;;;6.88;3.38;;;;;;;;;;5076418;28;20059;-87
2022/11/28 06:27:56;;;;;;;7.57;3.60;;;;;;;;;;5094658;28;20051;-87
2022/11/28 06:30:23;;;;;;;5.15;2.97;;;;;;;;;;5076842;28;20048;-88
2022/11/28 06:32:50;;;;;;;8.20;3.08;;;;;;;;;;5094884;28;20050;-87
2022/11/28 06:35:17;;;;;;;5.03;2.90;;;;;;;;;;5077354;28;20476;-87
2022/11/28 06:37:44;;;;;;;9.73;3.33;;;;;;;;;;5077289;28;20044;-87
2022/11/28 06:40:12;;;;;;;6.93;3.03;;;;;;;;;;5094924;28;20138;-88
2022/11/28 06:42:39;;;;;;;3.13;2.83;;;;;;;;;;5095450;28;20143;-87
2022/11/28 06:45:07;;;;;;;5.95;3.33;;;;;;;;;;5076731;28;20059;-87
2022/11/28 06:47:34;;;;;;;5.03;3.13;;;;;;;;;;5077082;28;20063;-87
2022/11/28 06:50:01;;;;;;;7.00;3.20;;;;;;;;;;5076459;28;20512;-87
2022/11/28 06:52:28;;;;;;;6.28;3.38;;;;;;;;;;5076817;28;20048;-88
2022/11/28 06:54:56;;;;;;;4.63;3.03;;;;;;;;;;5076402;28;20048;-87
2022/11/28 06:57:23;;;;;;;3.45;2.80;;;;;;;;;;5094259;28;20051;-88
2022/11/28 06:59:50;;;;;;;4.25;3.40;;;;;;;;;;5094436;28;20063;-87
2022/11/28 07:02:17;;;;;;;6.70;2.95;;;;;;;;;;5094382;28;20051;-88
2022/11/28 07:04:45;;;;;;;3.30;3.00;;;;;;;;;;5076608;28;20075;-88
2022/11/28 07:07:12;;;;;;;4.45;3.60;;;;;;;;;;5077522;28;20054;-88
2022/11/28 07:09:43;;;;;;;4.68;3.38;;;;;;;;;;5110248;28;20281;-88
2022/11/28 07:12:11;;;;;;;5.07;3.55;;;;;;;;;;5097690;28;20131;-88
2022/11/28 07:14:38;;;;;;;6.63;5.32;;;;;;;;;;5094248;28;20054;-88
2022/11/28 07:17:07;;;;;;;6.20;4.15;;;;;;;;;;5094188;28;20050;-87
2022/11/28 07:19:34;;;;;;;3.83;3.42;;;;;;;;;;5093319;28;20063;-87
2022/11/28 07:22:02;;;;;;;18.40;3.83;;;;;;;;;;5093821;28;20040;-87
2022/11/28 07:24:29;;;;;;;4.90;3.28;;;;;;;;;;5076023;28;20411;-87
2022/11/28 07:26:56;;;;;;;4.68;3.08;;;;;;;;;;5093889;28;20044;-88
2022/11/28 07:29:23;;;;;;;5.18;3.35;;;;;;;;;;5076170;28;20556;-88
2022/11/28 07:31:51;;;;;;;5.63;3.20;;;;;;;;;;5093319;28;20040;-88
2022/11/28 07:34:18;;;;;;;8.35;3.42;;;;;;;;;;5075928;28;20051;-87
2022/11/28 07:36:45;;;;;;;11.70;3.65;;;;;;;;;;5075358;28;20040;-87
2022/11/28 07:39:14;;;;;;;4.82;3.10;;;;;;;;;;5093449;28;20064;-88
2022/11/28 07:41:41;;;;;;;3.35;2.53;;;;;;;;;;5076137;28;20051;-88
2022/11/28 07:44:09;;;;;;;4.80;3.05;;;;;;;;;;5093637;28;20467;-88
2022/11/28 07:46:36;;;;;;;4.88;2.70;;;;;;;;;;5093798;28;20143;-88
2022/11/28 07:49:03;;;;;;;2.97;2.58;;;;;;;;;;5075717;28;20109;-88
2022/11/28 07:51:32;;;;;;;14.80;3.08;;;;;;;;;;5075707;28;20135;-88
2022/11/28 07:53:59;;;;;;;2.67;2.47;;;;;;;;;;5075374;28;20051;-88
2022/11/28 07:56:28;;;;;;;2.17;2.08;;;;;;;;;;5075668;28;20477;-87
2022/11/28 07:59:15;;;;;;;3.65;2.70;;;;;;;;;;5078715;28;20044;-87
2022/11/28 08:01:42;;;;;;;3.53;2.55;;;;;;;;;;5075634;28;20431;-88
2022/11/28 08:04:10;;;;;;;2.80;2.60;;;;;;;;;;5075483;28;20048;-87
2022/11/28 08:06:42;;;;;;;2.35;2.15;;;;;;;;;;5075511;28;20112;-88
2022/11/28 08:09:10;;;;;;;2.80;2.60;;;;;;;;;;5075973;28;20058;-88
2022/11/28 08:11:38;;;;;;;3.72;2.83;;;;;;;;;;5093464;28;20048;-88
2022/11/28 08:14:05;;;;;;;2.60;2.35;;;;;;;;;;5075356;28;20502;-88
2022/11/28 08:16:32;;;;;;;4.15;2.53;;;;;;;;;;5076039;28;20071;-88
2022/11/28 08:19:01;;;;;;;3.17;2.38;;;;;;;;;;5093568;28;20059;-88
2022/11/28 08:21:34;;;;;;;2.70;2.42;;;;;;;;;;5096499;28;20048;-88
2022/11/28 08:24:02;;;;;;;2.95;2.42;;;;;;;;;;5092975;28;20091;-88
2022/11/28 08:26:29;;;;;;;3.15;2.35;;;;;;;;;;5077128;28;20040;-87
2022/11/28 08:28:58;;;;;;;2.40;2.20;;;;;;;;;;5075421;28;20412;-87
2022/11/28 08:31:27;;;;;;;2.72;2.53;;;;;;;;;;5093045;28;20385;-87
2022/11/28 08:33:54;;;;;;;3.33;2.30;;;;;;;;;;5075263;28;20551;-87
2022/11/28 08:36:22;;;;;;;2.63;2.20;;;;;;;;;;5075546;28;20484;-88
2022/11/28 08:38:49;;;;;;;2.20;2.10;;;;;;;;;;5093294;28;20051;-87
2022/11/28 08:41:36;;;;;;;3.15;2.22;;;;;;;;;;5092826;28;20264;-87
2022/11/28 08:44:04;;;;;;;3.00;2.40;;;;;;;;;;5075117;28;20054;-87
2022/11/28 08:46:31;;;;;;;3.20;2.47;;;;;;;;;;5083920;28;20087;-86
2022/11/28 08:49:00;;;;;;;2.55;2.30;;;;;;;;;;5093613;28;20044;-87
2022/11/28 08:51:30;;;;;;;3.25;2.10;;;;;;;;;;5095767;28;20139;-87
2022/11/28 08:53:58;;;;;;;8.85;5.15;;;;;;;;;;5095454;28;20047;-87
2022/11/28 08:56:26;;;;;;;3.03;2.72;;;;;;;;;;5096797;28;20115;-88
2022/11/28 08:58:54;;;;;;;3.53;3.15;;;;;;;;;;5096482;28;20106;-87
2022/11/28 09:01:22;;;;;;;3.30;2.55;;;;;;;;;;5095471;28;20066;-87
2022/11/28 09:03:50;;;;;;;2.47;2.28;;;;;;;;;;5096624;28;20048;-88
2022/11/28 09:06:19;;;;;;;2.83;2.50;;;;;;;;;;5095490;28;20052;-86
2022/11/28 09:08:47;;;;;;;5.38;2.72;;;;;;;;;;5095021;28;20689;-88
2022/11/28 09:11:16;;;;;;;3.08;2.55;;;;;;;;;;5095421;28;20050;-86
2022/11/28 09:13:43;;;;;;;2.30;2.20;;;;;;;;;;5095520;28;20139;-88
2022/11/28 09:16:11;;;;;;;2.83;2.63;;;;;;;;;;5096250;28;20052;-88
2022/11/28 09:18:38;;;;;;;4.55;2.90;;;;;;;;;;5095279;28;20044;-88
2022/11/28 09:21:11;;;;;;;2.60;2.40;;;;;;;;;;5095055;28;20129;-88
2022/11/28 09:23:39;;;;;;;4.13;2.33;;;;;;;;;;5095913;28;20044;-88
2022/11/28 09:26:08;;;;;;;3.00;2.75;;;;;;;;;;5096715;28;20098;-88
2022/11/28 09:28:35;;;;;;;2.97;2.40;;;;;;;;;;5095881;28;20055;-88
2022/11/28 09:31:04;;;;;;;2.75;2.00;;;;;;;;;;5095785;28;20450;-88
2022/11/28 09:33:31;;;;;;;2.42;2.33;;;;;;;;;;5096785;28;20420;-88
2022/11/28 09:35:59;;;;;;;3.97;2.70;;;;;;;;;;5099037;28;20055;-88
2022/11/28 09:38:26;;;;;;;7.00;2.88;;;;;;;;;;5112127;28;20052;-88
2022/11/28 09:40:53;;;;;;;3.92;2.92;;;;;;;;;;5097916;28;20052;-88
2022/11/28 09:43:32;;;;;;;4.85;2.90;;;;;;;;;;5096968;28;20412;-88
2022/11/28 09:46:01;;;;;;;4.78;3.00;;;;;;;;;;5096406;28;20056;-88
2022/11/28 09:48:31;;;;;;;4.68;3.30;;;;;;;;;;5095896;28;20416;-89
2022/11/28 09:51:09;;;;;;;2.80;2.42;;;;;;;;;;5095556;28;20048;-88
2022/11/28 09:53:40;;;;;;;4.43;2.78;;;;;;;;;;5094892;28;20139;-87
2022/11/28 09:56:18;;;;;;;3.08;2.78;;;;;;;;;;5094691;28;20457;-87
2022/11/28 09:58:49;;;;;;;3.15;2.85;;;;;;;;;;5094398;28;20068;-87
2022/11/28 10:01:37;;;;;;;10.93;4.60;;;;;;;;;;5094582;28;20121;-88
2022/11/28 10:04:13;;;;;;;5.35;3.60;;;;;;;;;;5094397;28;20048;-87
2022/11/28 10:06:46;;;;;;;4.72;3.10;;;;;;;;;;5095821;28;20044;-87
2022/11/28 10:09:26;;;;;;;4.85;3.20;;;;;;;;;;5094446;28;20067;-88
2022/11/28 10:12:06;;;;;;;3.55;3.25;;;;;;;;;;5096195;28;20071;-88
2022/11/28 10:14:36;;;;;;;5.20;3.65;;;;;;;;;;5095016;28;20044;-87
2022/11/28 10:17:06;;;;;;;3.75;3.05;;;;;;;;;;5094157;28;20052;-88
2022/11/28 10:19:41;;;;;;;5.80;3.90;;;;;;;;;;5093876;28;20493;-88
2022/11/28 10:22:44;;;;;;;4.43;3.67;;;;;;;;;;5094453;28;20060;-88
2022/11/28 10:25:16;;;;;;;4.22;3.67;;;;;;;;;;5093991;28;20127;-88
2022/11/28 10:27:44;;;;;;;8.20;3.45;;;;;;;;;;5094099;28;20127;-88
2022/11/28 10:30:17;;;;;;;8.57;4.32;;;;;;;;;;5093721;28;20059;-88
2022/11/28 10:32:45;;;;;;;;;;;;;;;;;;5094706;28;20056;-88
2022/11/28 10:35:31;;;;;;;7.90;3.50;;;;;;;;;;5094080;28;19920;-88
2022/11/28 10:37:58;;;;;;;4.80;3.78;;;;;;;;;;5094171;28;20044;-88
2022/11/28 10:40:33;;;;;;;4.63;3.33;;;;;;;;;;5095056;28;20415;-88
2022/11/28 10:43:14;;;;;;;7.45;4.13;;;;;;;;;;5094860;28;20067;-88
2022/11/28 10:45:53;;;;;;;9.82;5.10;;;;;;;;;;5095221;28;20135;-89
2022/11/28 10:48:29;;;;;;;7.22;4.22;;;;;;;;;;5095961;28;20044;-88
2022/11/28 10:51:09;;;;;;;5.55;4.10;;;;;;;;;;5095609;28;20047;-88
2022/11/28 10:53:36;;;;;;;12.35;4.55;;;;;;;;;;5080506;28;20044;-88
2022/11/28 10:56:10;;;;;;;5.60;4.10;;;;;;;;;;5074901;28;20091;-88
2022/11/28 10:58:41;;;;;;;6.72;3.72;;;;;;;;;;5094541;28;20047;-88
2022/11/28 11:01:09;;;;;;;4.53;3.65;;;;;;;;;;5076502;28;20078;-89
2022/11/28 11:03:37;;;;;;;8.35;3.90;;;;;;;;;;5076774;28;20500;-88
2022/11/28 11:06:05;;;;;;;6.68;3.80;;;;;;;;;;5076393;28;20055;-89
2022/11/28 11:08:37;;;;;;;4.95;3.92;;;;;;;;;;5076531;28;20075;-89
2022/11/28 11:11:19;;;;;;;4.95;3.88;;;;;;;;;;5076433;28;20066;-88
2022/11/28 11:13:56;;;;;;;5.72;3.60;;;;;;;;;;5076154;28;20435;-88
2022/11/28 11:16:23;;;;;;;5.22;3.25;;;;;;;;;;5094404;28;20052;-89
2022/11/28 11:18:52;;;;;;;3.80;3.17;;;;;;;;;;5076317;28;20062;-88
2022/11/28 11:21:23;;;;;;;4.03;3.63;;;;;;;;;;5076204;28;20507;-88
2022/11/28 11:24:14;;;;;;;5.10;3.95;;;;;;;;;;5076309;28;20401;-89
2022/11/28 11:26:42;;;;;;;4.65;3.42;;;;;;;;;;5063848;28;20048;-89
2022/11/28 11:29:29;;;;;;;3.90;3.40;;;;;;;;;;5076457;28;20048;-89
2022/11/28 11:32:02;;;;;;;3.35;3.10;;;;;;;;;;5075956;28;20048;-88
2022/11/28 11:34:33;;;;;;;4.70;3.72;;;;;;;;;;5076262;28;20044;-89
2022/11/28 11:37:18;;;;;;;4.38;3.78;;;;;;;;;;5076142;28;20484;-88
2022/11/28 11:39:50;;;;;;;5.22;3.63;;;;;;;;;;5075838;28;20054;-87
2022/11/28 11:42:21;;;;;;;6.03;4.10;;;;;;;;;;5075431;28;20048;-88
2022/11/28 11:44:49;;;;;;;4.78;3.90;;;;;;;;;;5093785;28;20067;-89
2022/11/28 11:47:16;;;;;;;6.28;3.50;;;;;;;;;;5090783;28;20052;-88
2022/11/28 11:49:46;;;;;;;6.20;4.00;;;;;;;;;;5092637;28;20048;-87
2022/11/28 11:52:26;;;;;;;4.20;3.78;;;;;;;;;;5092366;28;20048;-88
2022/11/28 11:54:53;;;;;;;4.15;3.75;;;;;;;;;;5092457;28;20075;-88
2022/11/28 11:57:21;;;;;;;6.13;4.32;;;;;;;;;;5092656;28;20048;-89
2022/11/28 12:00:02;;;;;;;4.97;3.70;;;;;;;;;;5092678;28;20090;-88
2022/11/28 12:02:44;;;;;;;5.22;3.97;;;;;;;;;;5093885;28;20056;-88
2022/11/28 12:05:20;;;;;;;4.88;4.18;;;;;;;;;;5110690;28;20017;-88
2022/11/28 12:08:06;;;;;;;6.18;3.88;;;;;;;;;;5095303;28;20066;-88
2022/11/28 12:10:36;;;;;;;4.80;4.28;;;;;;;;;;5093347;28;20043;-89
2022/11/28 12:13:03;;;;;;;13.20;4.70;;;;;;;;;;5092557;28;20054;-88
2022/11/28 12:15:31;;;;;;;4.18;3.78;;;;;;;;;;5092315;28;20054;-88
2022/11/28 12:18:21;;;;;;;7.22;4.53;;;;;;;;;;5093455;28;20056;-89
2022/11/28 12:20:49;;;;;;;4.63;3.55;;;;;;;;;;5065020;28;20112;-89
2022/11/28 12:23:16;;;;;;;4.93;4.15;;;;;;;;;;5093047;28;20048;-89
2022/11/28 12:25:49;;;;;;;7.03;4.30;;;;;;;;;;5097261;28;20097;-89
2022/11/28 12:28:16;;;;;;;6.57;4.72;;;;;;;;;;5096744;28;20059;-89
2022/11/28 12:30:54;;;;;;;7.55;4.72;;;;;;;;;;5097520;28;20052;-89
2022/11/28 12:33:35;;;;;;;6.50;4.32;;;;;;;;;;5096645;28;20056;-89
2022/11/28 12:36:07;;;;;;;4.40;3.97;;;;;;;;;;5096499;28;20052;-88
2022/11/28 12:38:41;;;;;;;6.53;4.82;;;;;;;;;;5096486;28;20084;-90
2022/11/28 12:41:27;;;;;;;4.95;4.50;;;;;;;;;;5098042;28;20431;-89
2022/11/28 12:43:58;;;;;;;6.35;4.70;;;;;;;;;;5098800;28;20127;-89
2022/11/28 12:46:38;;;;;;;6.47;4.45;;;;;;;;;;5100163;28;20056;-89
2022/11/28 12:49:08;;;;;;;5.18;4.50;;;;;;;;;;5079196;28;20048;-89
2022/11/28 12:51:50;;;;;;;5.18;4.68;;;;;;;;;;5078925;28;20048;-88
2022/11/28 12:54:21;;;;;;;6.85;4.75;;;;;;;;;;5079253;28;20072;-88
2022/11/28 12:56:54;;;;;;;7.65;4.70;;;;;;;;;;5096975;28;20547;-90
2022/11/28 12:59:22;;;;;;;;;;;;;;;;;;5079523;28;20075;-89
2022/11/28 13:02:07;;;;;;;6.07;4.45;;;;;;;;;;5096505;28;19926;-89
2022/11/28 13:04:52;;;;;;;7.30;4.47;;;;;;;;;;5096758;28;20052;-88
2022/11/28 13:07:38;;;;;;;5.55;4.78;;;;;;;;;;5078967;28;20044;-89
2022/11/28 13:10:27;;;;;;;7.55;4.85;;;;;;;;;;5078666;28;20052;-88
2022/11/28 13:13:04;;;;;;;11.45;5.38;;;;;;;;;;5097076;28;20048;-88
2022/11/28 13:15:40;;;;;;;6.30;5.05;;;;;;;;;;5079655;28;20052;-89
2022/11/28 13:18:23;;;;;;;6.55;5.53;;;;;;;;;;5092951;28;20040;-89
2022/11/28 13:21:12;;;;;;;6.82;5.13;;;;;;;;;;5097631;28;20063;-88
2022/11/28 13:23:45;;;;;;;9.55;4.72;;;;;;;;;;5078903;28;20044;-87
2022/11/28 13:26:16;;;;;;;9.18;5.25;;;;;;;;;;5096586;28;20044;-88
2022/11/28 13:28:50;;;;;;;7.63;5.10;;;;;;;;;;5078462;28;20484;-87
2022/11/28 13:31:31;;;;;;;6.82;5.35;;;;;;;;;;5078332;28;20044;-87
2022/11/28 13:33:58;;;;;;;10.52;5.80;;;;;;;;;;5096270;28;20048;-88
2022/11/28 13:36:41;;;;;;;5.22;4.72;;;;;;;;;;5077813;28;20048;-87
2022/11/28 13:39:48;;;;;;;13.68;5.88;;;;;;;;;;5095582;28;20056;-87
2022/11/28 13:42:18;;;;;;;6.32;5.22;;;;;;;;;;5095992;28;20094;-87
2022/11/28 13:45:26;;;;;;;6.57;5.18;;;;;;;;;;5081117;28;20055;-86
2022/11/28 13:47:59;;;;;;;7.95;5.18;;;;;;;;;;5079015;28;20135;-88
2022/11/28 13:50:37;;;;;;;8.68;5.20;;;;;;;;;;5078421;28;20083;-88
2022/11/28 13:53:07;;;;;;;7.82;5.18;;;;;;;;;;5077924;28;20048;-88
2022/11/28 13:55:45;;;;;;;8.75;6.13;;;;;;;;;;5078326;28;20082;-89
2022/11/28 13:58:17;;;;;;;11.27;6.22;;;;;;;;;;5077826;28;20052;-87
2022/11/28 14:00:58;;;;;;;7.47;5.72;;;;;;;;;;5095658;28;20044;-87
2022/11/28 14:03:26;;;;;;;6.45;5.10;;;;;;;;;;5077762;28;20055;-89
2022/11/28 14:05:56;;;;;;;8.68;5.53;;;;;;;;;;5095329;28;20051;-87
2022/11/28 14:08:37;;;;;;;10.35;6.25;;;;;;;;;;5095771;28;20048;-87
2022/11/28 14:11:16;;;;;;;9.45;5.90;;;;;;;;;;5077969;28;20062;-88
2022/11/28 14:13:51;;;;;;;8.73;5.43;;;;;;;;;;5078466;28;20551;-88
2022/11/28 14:16:31;;;;;;;12.63;6.18;;;;;;;;;;5077836;28;20052;-88
2022/11/28 14:19:21;;;;;;;11.95;6.25;;;;;;;;;;5077568;28;20127;-88
2022/11/28 14:21:54;;;;;;;13.40;6.65;;;;;;;;;;5077868;28;20420;-90
2022/11/28 14:24:40;;;;;;;9.13;6.03;;;;;;;;;;5077428;28;20127;-88
2022/11/28 14:27:12;;;;;;;7.95;6.10;;;;;;;;;;5077447;28;20048;-88
2022/11/28 14:29:41;;;;;;;12.73;6.53;;;;;;;;;;5078803;28;20070;-88
2022/11/28 14:32:22;;;;;;;14.88;7.68;;;;;;;;;;5092819;28;20153;-88
2022/11/28 14:34:56;;;;;;;6.93;5.43;;;;;;;;;;5095793;28;20500;-88
2022/11/28 14:37:28;;;;;;;8.68;5.43;;;;;;;;;;5077307;28;20061;-88
2022/11/28 14:39:56;;;;;;;11.00;5.45;;;;;;;;;;5077253;28;20048;-89
2022/11/28 14:42:26;;;;;;;8.50;5.20;;;;;;;;;;5095083;28;20048;-88
2022/11/28 14:45:32;;;;;;;8.57;5.82;;;;;;;;;;5079859;28;20083;-90
2022/11/28 14:48:07;;;;;;;12.20;8.40;;;;;;;;;;5072399;28;20059;-88
2022/11/28 14:50:37;;;;;;;8.15;6.57;;;;;;;;;;5074612;28;20050;-90
2022/11/28 14:53:27;;;;;;;11.90;6.43;;;;;;;;;;5075164;28;20044;-90
2022/11/28 14:55:54;;;;;;;12.45;6.22;;;;;;;;;;5073529;28;20048;-87
2022/11/28 14:58:22;;;;;;;9.55;6.10;;;;;;;;;;5074367;28;20436;-89
2022/11/28 15:00:56;;;;;;;9.50;6.07;;;;;;;;;;5073032;28;20556;-89
2022/11/28 15:03:23;;;;;;;7.88;5.60;;;;;;;;;;5073332;28;20055;-89
2022/11/28 15:05:52;;;;;;;17.15;6.90;;;;;;;;;;5074043;28;20075;-89
2022/11/28 15:08:25;;;;;;;10.52;6.00;;;;;;;;;;5072862;28;20503;-87
2022/11/28 15:11:17;;;;;;;8.35;6.00;;;;;;;;;;5072782;28;20408;-88